Amalga, Utah
Current Conditions -  °F | °C
As of 3:51 PM on Saturday 25 Oct 2014 (Local Time) from KLGU Reporting Station
Clear Clear  
Wind Chill: 76°   Ceiling: Unl
Heat Index: 76°   Visibility: 10mi
Dew Point: 32°   Wind: 18mph
Humidity: 20%   Direction: 210°SSW
Pressure: 29.93"   Gusts: 29mph
Location:  41.8466°N, 111.898°W
Report Text: KLGU 252151Z AUTO 21016G25KT 10SM CLR 24/00 A2993 RMK AO2 PK WND 22027/2053 SLP104 T02440000 TSNO
Loading
Personal Weather Stations






























Interactive Weather Map
Tropical Storm Tracking
New forecast layout! Learn more

10-Day Weather Forecast

Advertisements
Track Severe Weather on mobile